Time;durP1;ratioP1;P1;durP2;ratioP2;P2;SDS_P1;SDS_P2;PMS_P1;PMS_P2;Temp;Humidity;BMP_temperature;BMP_pressure;BME280_temperature;BME280_humidity;BME280_pressure;Samples;Min_cycle;Max_cycle;Signal;HPM_P1;HPM_P2
2022/12/15 00:40:12;;;;;;;;;50.67;43.67;;;;;;;;5062072;28;61734;-77
2022/12/15 00:42:37;;;;;;;;;58.67;45.00;;;;;;;;5062542;28;61615;-77
2022/12/15 00:45:03;;;;;;;;;57.67;43.00;;;;;;;;5061347;28;61885;-77
2022/12/15 00:47:30;;;;;;;;;51.67;43.00;;;;;;;;5062195;28;61699;-76
2022/12/15 01:20:18;;;;;;;;;56.33;43.33;;;;;;;;5061512;28;62122;-77
2022/12/15 01:22:44;;;;;;;;;55.33;39.33;;;;;;;;5061549;28;61792;-77
2022/12/15 01:25:09;;;;;;;;;61.00;47.00;;;;;;;;5062050;28;61769;-77
2022/12/15 01:27:35;;;;;;;;;48.00;40.33;;;;;;;;5060944;28;62980;-76
2022/12/15 01:30:00;;;;;;;;;52.00;40.33;;;;;;;;5060159;28;61702;-76
2022/12/15 01:32:26;;;;;;;;;58.00;43.33;;;;;;;;5061673;28;61962;-77
2022/12/15 01:34:51;;;;;;;;;54.67;41.33;;;;;;;;5060048;28;61737;-76
2022/12/15 01:37:17;;;;;;;;;65.00;42.33;;;;;;;;5059327;28;64879;-76
2022/12/15 01:42:26;;;;;;;;;59.00;42.00;;;;;;;;5061737;28;61852;-76
2022/12/15 01:44:52;;;;;;;;;49.33;43.00;;;;;;;;5060209;28;61813;-76
2022/12/15 01:47:20;;;;;;;;;44.00;36.67;;;;;;;;5060933;28;61848;-76
2022/12/15 01:49:46;;;;;;;;;47.67;36.67;;;;;;;;5061153;28;62234;-76
2022/12/15 01:52:13;;;;;;;;;53.33;35.33;;;;;;;;5061093;28;61694;-76
2022/12/15 01:54:54;;;;;;;;;42.33;39.33;;;;;;;;5061985;28;61932;-76
2022/12/15 01:57:24;;;;;;;;;58.33;43.33;;;;;;;;5060670;28;61814;-76
2022/12/15 01:59:51;;;;;;;;;66.67;47.00;;;;;;;;5061224;28;61947;-76
2022/12/15 02:02:19;;;;;;;;;60.67;46.00;;;;;;;;5060982;28;62004;-76
2022/12/15 02:04:44;;;;;;;;;56.33;42.00;;;;;;;;5061174;28;61808;-76
2022/12/15 02:07:14;;;;;;;;;48.67;41.00;;;;;;;;5062306;28;64875;-75
2022/12/15 02:09:40;;;;;;;;;56.00;44.33;;;;;;;;5064833;28;61796;-76
2022/12/15 02:12:24;;;;;;;;;61.00;46.00;;;;;;;;5064712;28;61677;-76
2022/12/15 02:15:05;;;;;;;;;57.00;44.33;;;;;;;;5064693;28;62072;-76
2022/12/15 02:17:41;;;;;;;;;60.67;44.33;;;;;;;;5064000;28;62709;-76
2022/12/15 02:20:12;;;;;;;;;65.67;44.33;;;;;;;;5064037;28;61875;-76
2022/12/15 02:22:37;;;;;;;;;59.67;44.00;;;;;;;;5064572;28;62205;-76
2022/12/15 02:25:21;;;;;;;;;51.67;38.00;;;;;;;;5064748;28;62165;-76
2022/12/15 02:27:50;;;;;;;;;51.33;36.00;;;;;;;;5063926;28;61819;-76
2022/12/15 02:30:18;;;;;;;;;51.33;43.33;;;;;;;;5064182;28;61801;-76
2022/12/15 02:32:50;;;;;;;;;46.00;37.33;;;;;;;;5063928;28;61891;-77
2022/12/15 02:35:19;;;;;;;;;53.67;44.67;;;;;;;;5063029;28;61806;-76
2022/12/15 02:37:45;;;;;;;;;52.00;43.00;;;;;;;;5063427;28;62683;-76
2022/12/15 02:40:10;;;;;;;;;70.67;45.00;;;;;;;;5063914;28;62037;-76
2022/12/15 02:42:41;;;;;;;;;63.00;44.67;;;;;;;;5062825;28;62157;-76
2022/12/15 02:45:08;;;;;;;;;49.67;44.67;;;;;;;;5063126;28;61815;-77
2022/12/15 02:47:44;;;;;;;;;54.00;42.67;;;;;;;;5061709;28;64040;-76
2022/12/15 02:50:10;;;;;;;;;50.33;40.67;;;;;;;;5063827;28;61829;-76
2022/12/15 02:52:41;;;;;;;;;53.33;41.33;;;;;;;;5062471;28;61867;-76
2022/12/15 02:55:14;;;;;;;;;45.33;37.33;;;;;;;;5062963;28;61761;-76
2022/12/15 02:57:52;;;;;;;;;57.00;39.67;;;;;;;;5063205;28;61807;-76
2022/12/15 03:00:17;;;;;;;;;40.67;38.00;;;;;;;;5063398;28;61705;-76
2022/12/15 03:02:45;;;;;;;;;53.00;43.00;;;;;;;;5063562;28;61777;-76
2022/12/15 03:05:11;;;;;;;;;53.67;45.67;;;;;;;;5062663;28;61862;-76
2022/12/15 03:07:36;;;;;;;;;53.67;44.33;;;;;;;;5078308;28;64631;-76
2022/12/15 03:10:03;;;;;;;;;49.33;36.33;;;;;;;;5063703;28;61869;-76
2022/12/15 03:12:28;;;;;;;;;53.00;42.33;;;;;;;;5063701;28;61897;-76
2022/12/15 03:14:54;;;;;;;;;48.67;40.33;;;;;;;;5063884;28;61886;-76
2022/12/15 03:17:19;;;;;;;;;42.33;35.33;;;;;;;;5062712;28;62141;-76
2022/12/15 03:19:44;;;;;;;;;67.00;44.67;;;;;;;;5063334;28;61953;-76
2022/12/15 03:22:09;;;;;;;;;50.67;43.33;;;;;;;;5062082;28;62011;-76
2022/12/15 03:24:35;;;;;;;;;63.67;48.00;;;;;;;;5063888;28;63016;-76
2022/12/15 03:27:00;;;;;;;;;55.00;47.33;;;;;;;;5062873;28;63075;-76
2022/12/15 03:29:25;;;;;;;;;50.33;45.33;;;;;;;;5061643;28;61958;-76
2022/12/15 03:31:51;;;;;;;;;51.00;43.00;;;;;;;;5062916;28;61733;-76
2022/12/15 03:34:16;;;;;;;;;53.33;44.33;;;;;;;;5061741;28;61788;-76
2022/12/15 03:36:41;;;;;;;;;39.33;34.33;;;;;;;;5053138;28;61688;-76
2022/12/15 03:39:07;;;;;;;;;65.00;47.67;;;;;;;;5043071;28;61722;-76
2022/12/15 03:41:32;;;;;;;;;44.67;38.00;;;;;;;;5042905;28;61767;-76
2022/12/15 03:43:57;;;;;;;;;54.00;43.33;;;;;;;;5042051;28;62126;-76
2022/12/15 03:46:22;;;;;;;;;62.00;46.00;;;;;;;;5042305;28;62020;-76
2022/12/15 03:48:48;;;;;;;;;50.00;38.00;;;;;;;;5041401;28;62027;-76
2022/12/15 03:51:13;;;;;;;;;53.00;42.67;;;;;;;;5043296;28;61782;-76
2022/12/15 03:53:39;;;;;;;;;55.33;44.67;;;;;;;;5042488;28;61900;-76
2022/12/15 03:56:05;;;;;;;;;59.67;45.33;;;;;;;;5042313;28;62665;-76
2022/12/15 03:58:30;;;;;;;;;60.67;48.00;;;;;;;;5042735;28;61674;-76
2022/12/15 04:00:55;;;;;;;;;61.33;46.67;;;;;;;;5042518;28;61754;-76
2022/12/15 04:03:21;;;;;;;;;64.67;46.00;;;;;;;;5042819;28;61973;-76
2022/12/15 04:05:46;;;;;;;;;52.00;42.33;;;;;;;;5040232;28;63828;-76
2022/12/15 04:08:12;;;;;;;;;61.67;48.67;;;;;;;;5042431;28;61724;-76
2022/12/15 04:10:37;;;;;;;;;50.00;24.00;;;;;;;;5042515;28;62281;-76
2022/12/15 04:13:06;;;;;;;;;58.67;44.33;;;;;;;;5042892;28;61922;-76
2022/12/15 04:15:32;;;;;;;;;49.33;40.00;;;;;;;;5040287;28;63918;-76
2022/12/15 04:17:59;;;;;;;;;51.67;41.33;;;;;;;;5042732;28;62288;-76
2022/12/15 04:20:25;;;;;;;;;51.67;41.67;;;;;;;;5042427;28;61829;-76
2022/12/15 04:22:50;;;;;;;;;55.67;43.33;;;;;;;;5042199;28;61866;-76
2022/12/15 05:33:51;;;;;;;;;57.33;42.00;;;;;;;;5041227;28;61860;-76
2022/12/15 05:36:16;;;;;;;;;65.33;44.00;;;;;;;;5045382;28;61711;-76
2022/12/15 05:38:42;;;;;;;;;49.67;43.00;;;;;;;;5061376;28;61915;-76
2022/12/15 05:41:07;;;;;;;;;57.67;43.33;;;;;;;;5062148;28;62831;-76
2022/12/15 05:43:32;;;;;;;;;59.00;41.67;;;;;;;;5063331;28;61994;-76
2022/12/15 05:46:01;;;;;;;;;55.67;44.00;;;;;;;;5064881;28;61856;-76
2022/12/15 05:48:26;;;;;;;;;54.33;46.67;;;;;;;;5065206;28;62006;-75
2022/12/15 05:50:52;;;;;;;;;65.00;44.67;;;;;;;;5063984;28;61740;-76
2022/12/15 05:53:17;;;;;;;;;47.67;41.33;;;;;;;;5062942;28;61747;-76
2022/12/15 05:55:42;;;;;;;;;48.67;40.33;;;;;;;;5063165;28;62018;-76
2022/12/15 05:58:07;;;;;;;;;51.67;44.67;;;;;;;;5064432;28;62143;-76
2022/12/15 06:00:33;;;;;;;;;67.00;44.00;;;;;;;;5064097;28;62650;-76
2022/12/15 06:02:58;;;;;;;;;63.67;46.33;;;;;;;;5064242;28;61701;-76
2022/12/15 06:05:23;;;;;;;;;51.67;39.33;;;;;;;;5062859;28;61967;-75
2022/12/15 06:07:48;;;;;;;;;57.00;44.33;;;;;;;;5064469;28;61942;-76
2022/12/15 06:10:14;;;;;;;;;47.33;36.67;;;;;;;;5061854;28;64833;-75
2022/12/15 06:12:39;;;;;;;;;49.67;37.33;;;;;;;;5063664;28;61929;-76
2022/12/15 06:15:05;;;;;;;;;43.33;32.33;;;;;;;;5064074;28;61951;-75
2022/12/15 06:17:30;;;;;;;;;50.33;43.67;;;;;;;;5064803;28;61713;-75
2022/12/15 06:19:56;;;;;;;;;65.00;48.00;;;;;;;;5063560;28;61757;-75
2022/12/15 06:22:21;;;;;;;;;55.67;40.33;;;;;;;;5063851;28;62006;-75
2022/12/15 06:24:46;;;;;;;;;51.00;43.00;;;;;;;;5064012;28;61793;-75
2022/12/15 06:27:11;;;;;;;;;59.67;41.00;;;;;;;;5064299;28;61724;-74
2022/12/15 06:29:37;;;;;;;;;55.00;42.00;;;;;;;;5063467;28;61815;-76
2022/12/15 06:32:03;;;;;;;;;55.67;40.67;;;;;;;;5063891;28;61949;-75
2022/12/15 06:34:28;;;;;;;;;44.33;40.00;;;;;;;;5063910;28;61718;-74
2022/12/15 06:36:53;;;;;;;;;46.00;40.67;;;;;;;;5063735;28;61844;-75
2022/12/15 06:39:19;;;;;;;;;63.00;44.67;;;;;;;;5061708;28;63611;-74
2022/12/15 06:41:44;;;;;;;;;58.33;37.33;;;;;;;;5058270;28;61969;-76
2022/12/15 06:44:13;;;;;;;;;53.00;44.00;;;;;;;;5054295;28;61807;-75
2022/12/15 06:46:38;;;;;;;;;85.00;61.67;;;;;;;;5052226;28;61822;-74
2022/12/15 06:49:04;;;;;;;;;64.67;49.00;;;;;;;;5044176;28;65194;-75
2022/12/15 06:51:29;;;;;;;;;64.67;47.33;;;;;;;;5054802;28;62559;-74
2022/12/15 06:53:55;;;;;;;;;77.67;49.33;;;;;;;;5055035;28;61768;-74
2022/12/15 06:56:21;;;;;;;;;66.33;50.33;;;;;;;;5060190;28;61733;-72
2022/12/15 06:58:51;;;;;;;;;72.00;50.00;;;;;;;;5062668;28;62762;-72
2022/12/15 07:01:17;;;;;;;;;68.00;51.00;;;;;;;;5051747;28;62191;-72
2022/12/15 07:03:43;;;;;;;;;75.00;57.67;;;;;;;;5052389;28;62995;-72
2022/12/15 07:06:09;;;;;;;;;76.33;57.67;;;;;;;;5048524;28;62101;-72
2022/12/15 07:08:35;;;;;;;;;51.00;38.00;;;;;;;;5042259;28;61929;-72
2022/12/15 07:11:06;;;;;;;;;67.33;46.33;;;;;;;;5060594;28;61960;-72
2022/12/15 07:13:33;;;;;;;;;51.33;45.33;;;;;;;;5062723;28;61942;-72
2022/12/15 07:15:59;;;;;;;;;60.33;44.33;;;;;;;;5061458;28;61755;-72
2022/12/15 07:18:25;;;;;;;;;70.00;48.67;;;;;;;;5061543;28;61894;-74
2022/12/15 07:20:50;;;;;;;;;80.67;54.00;;;;;;;;5064631;28;61865;-74
2022/12/15 07:23:15;;;;;;;;;63.33;43.67;;;;;;;;5061004;28;61782;-74
2022/12/15 07:25:41;;;;;;;;;55.33;44.00;;;;;;;;5061700;28;61821;-75
2022/12/15 07:28:06;;;;;;;;;46.33;40.33;;;;;;;;5061106;28;63595;-75
2022/12/15 07:30:34;;;;;;;;;64.33;50.33;;;;;;;;5062769;28;61782;-75
2022/12/15 07:32:59;;;;;;;;;66.00;50.33;;;;;;;;5060966;28;61867;-75
2022/12/15 07:35:25;;;;;;;;;72.33;54.67;;;;;;;;5063051;28;61804;-75
2022/12/15 07:37:50;;;;;;;;;67.00;51.33;;;;;;;;5062101;28;62612;-75
2022/12/15 07:40:16;;;;;;;;;56.67;41.00;;;;;;;;5062443;28;61788;-75
2022/12/15 07:42:41;;;;;;;;;52.67;44.67;;;;;;;;5063044;28;61834;-74
2022/12/15 07:45:07;;;;;;;;;53.33;43.67;;;;;;;;5063087;28;61928;-75
2022/12/15 07:47:32;;;;;;;;;49.67;44.33;;;;;;;;5061862;28;62663;-73
2022/12/15 07:49:58;;;;;;;;;60.33;47.33;;;;;;;;5048616;28;61816;-76
2022/12/15 07:52:23;;;;;;;;;55.67;45.67;;;;;;;;5044504;28;61843;-76
2022/12/15 07:54:49;;;;;;;;;55.67;47.67;;;;;;;;5042653;28;61909;-73
2022/12/15 07:57:15;;;;;;;;;58.67;46.33;;;;;;;;5041885;28;62527;-74
2022/12/15 07:59:40;;;;;;;;;70.00;48.00;;;;;;;;5041928;28;62572;-72
2022/12/15 08:02:05;;;;;;;;;54.33;46.67;;;;;;;;5040236;28;62222;-73
2022/12/15 08:04:31;;;;;;;;;57.33;44.67;;;;;;;;5056210;28;61734;-74
2022/12/15 08:06:57;;;;;;;;;44.67;43.00;;;;;;;;5061020;28;62664;-74
2022/12/15 08:09:22;;;;;;;;;51.67;39.00;;;;;;;;5060555;28;62132;-74
2022/12/15 08:11:49;;;;;;;;;61.33;44.33;;;;;;;;5062495;28;61895;-74
2022/12/15 08:14:14;;;;;;;;;69.67;45.33;;;;;;;;5062513;28;61773;-75
2022/12/15 08:16:39;;;;;;;;;48.33;40.33;;;;;;;;5061505;28;61665;-75
2022/12/15 08:19:05;;;;;;;;;72.00;49.67;;;;;;;;5062517;28;61789;-74
2022/12/15 08:21:31;;;;;;;;;63.33;43.33;;;;;;;;5061510;28;61744;-74
2022/12/15 08:23:57;;;;;;;;;45.67;35.67;;;;;;;;5062327;28;61871;-74
2022/12/15 08:26:22;;;;;;;;;45.67;38.67;;;;;;;;5060216;28;64866;-74
2022/12/15 08:28:48;;;;;;;;;54.00;43.33;;;;;;;;5060198;28;61628;-75
2022/12/15 08:31:15;;;;;;;;;46.33;41.67;;;;;;;;5062102;28;61837;-75
2022/12/15 08:33:40;;;;;;;;;57.00;46.33;;;;;;;;5061957;28;61988;-75
2022/12/15 08:36:07;;;;;;;;;54.67;44.00;;;;;;;;5061161;28;62010;-75
2022/12/15 08:38:33;;;;;;;;;64.00;43.00;;;;;;;;5061878;28;61967;-74
2022/12/15 08:41:05;;;;;;;;;54.33;42.33;;;;;;;;5060263;28;61932;-75
2022/12/15 08:43:30;;;;;;;;;69.67;49.33;;;;;;;;5062177;28;61884;-75
2022/12/15 08:45:56;;;;;;;;;48.00;41.33;;;;;;;;5061182;28;61858;-75
2022/12/15 08:48:21;;;;;;;;;71.33;50.00;;;;;;;;5061672;28;61682;-75
2022/12/15 08:50:47;;;;;;;;;65.33;50.00;;;;;;;;5061454;28;61888;-75
2022/12/15 08:53:12;;;;;;;;;67.00;49.67;;;;;;;;5061686;28;61932;-75
2022/12/15 08:55:37;;;;;;;;;70.33;49.00;;;;;;;;5059413;28;64840;-75
2022/12/15 08:58:03;;;;;;;;;70.33;46.33;;;;;;;;5061791;28;61887;-75
2022/12/15 09:00:28;;;;;;;;;63.67;48.00;;;;;;;;5061928;28;61647;-75
2022/12/15 09:02:54;;;;;;;;;69.00;49.33;;;;;;;;5061507;28;62129;-75
2022/12/15 09:05:19;;;;;;;;;64.67;50.33;;;;;;;;5060951;28;62099;-75
2022/12/15 09:07:44;;;;;;;;;61.33;48.00;;;;;;;;5061122;28;61826;-75
2022/12/15 09:10:09;;;;;;;;;63.00;48.67;;;;;;;;5061760;28;61777;-75
2022/12/15 09:12:35;;;;;;;;;71.67;52.33;;;;;;;;5060319;28;62271;-75
2022/12/15 09:15:00;;;;;;;;;62.67;47.33;;;;;;;;5062840;28;62982;-75
2022/12/15 09:17:25;;;;;;;;;61.33;48.33;;;;;;;;5065363;28;61760;-75
2022/12/15 09:19:51;;;;;;;;;58.67;43.67;;;;;;;;5063218;28;61867;-74
2022/12/15 09:22:17;;;;;;;;;57.33;44.00;;;;;;;;5065053;28;61932;-75
2022/12/15 09:24:42;;;;;;;;;58.00;46.33;;;;;;;;5064298;28;61766;-75
2022/12/15 09:27:07;;;;;;;;;72.00;48.00;;;;;;;;5063627;28;61822;-74
2022/12/15 09:29:33;;;;;;;;;59.33;47.00;;;;;;;;5065031;28;61818;-75
2022/12/15 09:31:58;;;;;;;;;63.67;42.67;;;;;;;;5064934;28;61681;-74
2022/12/15 09:34:23;;;;;;;;;51.67;44.00;;;;;;;;5064257;28;61818;-74
2022/12/15 09:36:48;;;;;;;;;67.67;47.00;;;;;;;;5064500;28;61718;-74
2022/12/15 09:39:15;;;;;;;;;64.00;46.67;;;;;;;;5063399;28;61754;-75
2022/12/15 09:41:47;;;;;;;;;56.00;43.00;;;;;;;;5063565;28;61944;-75
2022/12/15 09:44:14;;;;;;;;;58.67;42.67;;;;;;;;5064174;28;62865;-74
2022/12/15 09:46:59;;;;;;;;;60.00;48.00;;;;;;;;5064839;28;61772;-75
2022/12/15 09:49:44;;;;;;;;;64.00;50.00;;;;;;;;5064425;28;61830;-74
2022/12/15 09:52:30;;;;;;;;;34.00;14.00;;;;;;;;5064678;28;61799;-75
2022/12/15 09:54:56;;;;;;;;;50.33;39.33;;;;;;;;5062388;28;65103;-74
2022/12/15 09:57:24;;;;;;;;;66.67;44.00;;;;;;;;5064643;28;61671;-74
2022/12/15 09:59:59;;;;;;;;;62.67;46.67;;;;;;;;5063051;28;61893;-75
2022/12/15 10:02:47;;;;;;;;;46.33;41.67;;;;;;;;5064449;28;62782;-75
2022/12/15 10:05:37;;;;;;;;;66.00;46.67;;;;;;;;5063504;27;62885;-75
2022/12/15 10:08:02;;;;;;;;;70.67;45.33;;;;;;;;5062406;28;61830;-75
2022/12/15 10:10:27;;;;;;;;;59.67;44.33;;;;;;;;5064350;28;61783;-74
2022/12/15 10:12:55;;;;;;;;;58.00;44.33;;;;;;;;5063002;28;61816;-75
2022/12/15 10:15:25;;;;;;;;;66.33;53.00;;;;;;;;5063593;28;61912;-75
2022/12/15 10:18:03;;;;;;;;;57.00;40.33;;;;;;;;5064216;28;61816;-75
2022/12/15 10:20:29;;;;;;;;;59.33;47.33;;;;;;;;5064136;28;62019;-74
2022/12/15 10:23:01;;;;;;;;;49.00;40.67;;;;;;;;5062638;28;62229;-74
2022/12/15 10:25:30;;;;;;;;;62.00;46.00;;;;;;;;5063048;28;62678;-74
2022/12/15 10:28:18;;;;;;;;;62.33;40.00;;;;;;;;5063796;28;61951;-74
2022/12/15 10:31:04;;;;;;;;;56.33;45.00;;;;;;;;4985070;28;61878;-74
2022/12/15 10:33:33;;;;;;;;;58.67;43.67;;;;;;;;4997879;28;62037;-74
2022/12/15 10:35:58;;;;;;;;;55.67;41.67;;;;;;;;5000710;28;62032;-74
2022/12/15 10:38:34;;;;;;;;;60.00;46.00;;;;;;;;5001204;28;61984;-74
2022/12/15 10:41:06;;;;;;;;;66.00;45.00;;;;;;;;5000546;28;61919;-74
2022/12/15 10:43:35;;;;;;;;;62.33;45.67;;;;;;;;5001403;28;61928;-74
2022/12/15 10:46:06;;;;;;;;;63.33;35.67;;;;;;;;5000545;28;61800;-74
2022/12/15 10:48:31;;;;;;;;;62.33;42.00;;;;;;;;5001556;28;61935;-74
2022/12/15 10:51:15;;;;;;;;;53.67;42.00;;;;;;;;5000990;28;62162;-74
2022/12/15 10:53:42;;;;;;;;;48.33;40.00;;;;;;;;5001440;28;62175;-74
2022/12/15 10:56:08;;;;;;;;;63.33;49.67;;;;;;;;5000653;28;62972;-75
2022/12/15 10:58:44;;;;;;;;;53.33;43.33;;;;;;;;5001337;28;63042;-74
2022/12/15 11:01:20;;;;;;;;;49.00;32.00;;;;;;;;5000844;28;61943;-74
2022/12/15 11:03:49;;;;;;;;;54.33;40.67;;;;;;;;5000848;28;61986;-74
2022/12/15 11:06:16;;;;;;;;;59.67;43.00;;;;;;;;4999798;28;62725;-74
2022/12/15 11:08:42;;;;;;;;;58.00;43.33;;;;;;;;5055334;28;61757;-74
2022/12/15 11:14:11;;;;;;;;;62.33;44.00;;;;;;;;5063679;28;61867;-74
2022/12/15 11:16:42;;;;;;;;;43.00;37.00;;;;;;;;5062760;28;61625;-74
2022/12/15 11:19:12;;;;;;;;;52.67;44.67;;;;;;;;5063361;28;61768;-74
2022/12/15 11:21:44;;;;;;;;;52.00;42.33;;;;;;;;5063346;28;61960;-74
2022/12/15 11:24:12;;;;;;;;;52.50;41.00;;;;;;;;5062859;28;62059;-74
2022/12/15 11:26:49;;;;;;;;;48.33;40.33;;;;;;;;5062708;28;61712;-74
2022/12/15 11:29:15;;;;;;;;;59.33;43.00;;;;;;;;5063104;28;61949;-74
2022/12/15 11:31:42;;;;;;;;;50.00;37.00;;;;;;;;5062964;28;61912;-74
2022/12/15 11:34:11;;;;;;;;;47.75;34.25;;;;;;;;5062969;28;61872;-74
2022/12/15 11:36:55;;;;;;;;;50.00;40.67;;;;;;;;5060885;28;64822;-74
2022/12/15 11:39:33;;;;;;;;;55.67;43.33;;;;;;;;5062524;28;61636;-74
2022/12/15 11:42:18;;;;;;;;;66.33;45.00;;;;;;;;5063194;28;62086;-74
2022/12/15 11:44:44;;;;;;;;;58.33;41.00;;;;;;;;5000459;28;62316;-74
2022/12/15 11:47:15;;;;;;;;;60.33;42.33;;;;;;;;5000119;28;62006;-75
2022/12/15 11:49:40;;;;;;;;;51.67;41.67;;;;;;;;5000157;28;61971;-75
2022/12/15 11:52:20;;;;;;;;;47.00;37.67;;;;;;;;4983899;28;61884;-75
2022/12/15 11:54:52;;;;;;;;;53.33;36.33;;;;;;;;5000935;28;62250;-74
2022/12/15 11:57:26;;;;;;;;;45.50;33.50;;;;;;;;4999506;28;62004;-74
2022/12/15 12:00:00;;;;;;;;;58.00;40.50;;;;;;;;4983586;28;61843;-74
2022/12/15 12:02:25;;;;;;;;;53.33;43.67;;;;;;;;4983316;28;61769;-74
2022/12/15 12:04:51;;;;;;;;;41.50;33.00;;;;;;;;5000514;28;62335;-74
2022/12/15 12:07:34;;;;;;;;;47.75;39.25;;;;;;;;4982659;28;64939;-74
2022/12/15 12:10:18;;;;;;;;;48.00;39.75;;;;;;;;5000427;28;61992;-74
2022/12/15 12:13:04;;;;;;;;;48.50;36.25;;;;;;;;4983788;28;61957;-74
2022/12/15 12:15:45;;;;;;;;;56.75;40.50;;;;;;;;4996324;28;62049;-74
2022/12/15 12:18:16;;;;;;;;;54.75;39.00;;;;;;;;4999645;28;62839;-74
2022/12/15 12:20:55;;;;;;;;;50.00;34.00;;;;;;;;5000281;28;61778;-74
2022/12/15 12:23:20;;;;;;;;;38.00;32.50;;;;;;;;5060627;28;61971;-75
2022/12/15 12:25:55;;;;;;;;;37.50;32.50;;;;;;;;5062255;28;61772;-74
2022/12/15 12:28:29;;;;;;;;;45.25;39.25;;;;;;;;5061000;28;61744;-74
2022/12/15 12:30:56;;;;;;;;;43.50;35.00;;;;;;;;5062187;28;61768;-74
2022/12/15 12:33:35;;;;;;;;;41.00;30.75;;;;;;;;5061952;28;61861;-74
2022/12/15 12:36:08;;;;;;;;;42.75;34.25;;;;;;;;5062253;28;62078;-74
2022/12/15 12:38:40;;;;;;;;;40.50;32.00;;;;;;;;5061113;28;62546;-74
2022/12/15 12:41:17;;;;;;;;;48.00;33.50;;;;;;;;5062078;28;61879;-74
2022/12/15 12:43:46;;;;;;;;;37.75;29.50;;;;;;;;5061912;28;61756;-74
2022/12/15 12:46:20;;;;;;;;;45.75;35.00;;;;;;;;5062437;28;61824;-74
2022/12/15 12:48:55;;;;;;;;;39.50;36.50;;;;;;;;5060697;28;61752;-74
2022/12/15 12:51:20;;;;;;;;;39.50;31.00;;;;;;;;5061914;28;61967;-74
2022/12/15 12:53:45;;;;;;;;;46.50;35.25;;;;;;;;5061449;28;61976;-74
2022/12/15 12:56:29;;;;;;;;;48.50;31.00;;;;;;;;5061877;28;61827;-74
2022/12/15 12:58:55;;;;;;;;;46.75;37.00;;;;;;;;5061244;28;62563;-74
2022/12/15 13:01:30;;;;;;;;;63.75;40.00;;;;;;;;5060047;28;61947;-74
2022/12/15 13:04:08;;;;;;;;;39.25;30.75;;;;;;;;5061980;28;61783;-74
2022/12/15 13:06:33;;;;;;;;;47.50;36.25;;;;;;;;5061650;28;62061;-74
2022/12/15 13:09:18;;;;;;;;;32.50;28.75;;;;;;;;5060989;28;62069;-74
2022/12/15 13:11:44;;;;;;;;;40.00;32.00;;;;;;;;5059762;28;61786;-74
2022/12/15 13:14:13;;;;;;;;;39.50;34.00;;;;;;;;5061798;28;61761;-74
2022/12/15 13:16:39;;;;;;;;;43.25;31.25;;;;;;;;5061656;28;62034;-74
2022/12/15 13:19:05;;;;;;;;;45.50;32.50;;;;;;;;5061026;28;62539;-74
2022/12/15 13:21:43;;;;;;;;;49.75;39.00;;;;;;;;5061226;28;61863;-74
2022/12/15 13:24:26;;;;;;;;;50.25;34.75;;;;;;;;5059621;28;62035;-74
2022/12/15 13:26:52;;;;;;;;;39.25;33.00;;;;;;;;5061276;28;62309;-74
2022/12/15 13:29:20;;;;;;;;;44.50;33.75;;;;;;;;5060968;28;61732;-74
2022/12/15 13:31:47;;;;;;;;;44.25;34.75;;;;;;;;5060894;28;61900;-74
2022/12/15 13:34:15;;;;;;;;;51.75;35.00;;;;;;;;5061664;28;61866;-74
2022/12/15 13:36:40;;;;;;;;;44.50;31.50;;;;;;;;5061339;28;62038;-74
2022/12/15 13:39:11;;;;;;;;;45.25;35.25;;;;;;;;5060269;28;62743;-74
2022/12/15 13:41:41;;;;;;;;;45.00;35.50;;;;;;;;5059402;28;62010;-74
2022/12/15 13:44:14;;;;;;;;;39.75;32.75;;;;;;;;5051039;28;61591;-74
2022/12/15 13:46:43;;;;;;;;;38.25;35.25;;;;;;;;5050862;28;61981;-75
2022/12/15 13:49:11;;;;;;;;;39.75;32.50;;;;;;;;5046727;28;61933;-75
2022/12/15 13:51:41;;;;;;;;;42.50;29.00;;;;;;;;5057669;28;61889;-75
2022/12/15 13:54:08;;;;;;;;;49.75;31.50;;;;;;;;5057211;28;61892;-74
2022/12/15 13:56:33;;;;;;;;;38.00;29.25;;;;;;;;5053366;28;62112;-75
2022/12/15 13:59:04;;;;;;;;;39.00;29.00;;;;;;;;5057581;28;62004;-76
2022/12/15 14:01:30;;;;;;;;;36.75;26.50;;;;;;;;5045277;28;62043;-76
2022/12/15 14:04:05;;;;;;;;;21.75;12.50;;;;;;;;5058148;28;62244;-75
2022/12/15 14:06:36;;;;;;;;;30.25;26.25;;;;;;;;5079133;27;62074;-75
2022/12/15 14:09:01;;;;;;;;;28.50;24.25;;;;;;;;5052649;28;62341;-76
2022/12/15 14:11:29;;;;;;;;;33.75;24.25;;;;;;;;5096258;27;61752;-76
2022/12/15 14:13:57;;;;;;;;;28.75;23.25;;;;;;;;5061363;28;61834;-75
2022/12/15 14:16:31;;;;;;;;;29.50;24.00;;;;;;;;5063880;28;61824;-76
2022/12/15 14:19:12;;;;;;;;;29.75;27.00;;;;;;;;5061604;28;63432;-75
2022/12/15 14:21:37;;;;;;;;;32.00;28.25;;;;;;;;5047338;28;61970;-75
2022/12/15 14:24:14;;;;;;;;;34.50;24.50;;;;;;;;5043004;28;61784;-76
2022/12/15 14:26:40;;;;;;;;;26.25;21.50;;;;;;;;5043923;28;61629;-76
2022/12/15 14:29:05;;;;;;;;;32.75;20.50;;;;;;;;5042607;28;61715;-76
2022/12/15 14:31:31;;;;;;;;;32.00;22.00;;;;;;;;5043285;28;61964;-77
2022/12/15 14:34:05;;;;;;;;;31.25;22.00;;;;;;;;5060167;28;61823;-76
2022/12/15 14:36:31;;;;;;;;;19.00;14.50;;;;;;;;5063788;28;62108;-75
2022/12/15 14:39:00;;;;;;;;;22.75;17.25;;;;;;;;5053980;28;62823;-76
2022/12/15 14:41:34;;;;;;;;;18.75;17.75;;;;;;;;5041682;28;61922;-76
2022/12/15 14:44:02;;;;;;;;;23.25;17.75;;;;;;;;5043593;28;61900;-75
2022/12/15 14:46:28;;;;;;;;;26.50;20.75;;;;;;;;5042390;28;61999;-75
2022/12/15 14:48:55;;;;;;;;;26.75;21.75;;;;;;;;5042587;28;61830;-75
2022/12/15 14:51:21;;;;;;;;;21.25;18.00;;;;;;;;5048661;28;61695;-74
2022/12/15 14:53:47;;;;;;;;;16.50;16.25;;;;;;;;5061257;28;62018;-73
2022/12/15 14:56:18;;;;;;;;;26.50;18.00;;;;;;;;5061801;28;61801;-75
2022/12/15 14:58:45;;;;;;;;;16.75;12.25;;;;;;;;5061032;28;63855;-75
2022/12/15 15:01:28;;;;;;;;;21.00;13.75;;;;;;;;5060895;28;61832;-75
2022/12/15 15:04:04;;;;;;;;;16.75;12.75;;;;;;;;5088002;27;61690;-76
2022/12/15 15:06:37;;;;;;;;;23.50;16.25;;;;;;;;5063124;28;61756;-76
2022/12/15 15:09:22;;;;;;;;;18.25;16.00;;;;;;;;5062197;28;62014;-75
2022/12/15 15:11:50;;;;;;;;;24.25;18.00;;;;;;;;5062583;28;61791;-74
2022/12/15 15:14:37;;;;;;;;;21.25;19.50;;;;;;;;5062890;28;61919;-75
2022/12/15 15:17:03;;;;;;;;;25.25;18.75;;;;;;;;5063365;28;62032;-75
2022/12/15 15:19:28;;;;;;;;;30.75;23.00;;;;;;;;5051456;28;61880;-75
2022/12/15 15:21:54;;;;;;;;;25.25;16.25;;;;;;;;5041014;28;62024;-77
2022/12/15 15:24:22;;;;;;;;;25.25;18.00;;;;;;;;5042078;28;61962;-75
2022/12/15 15:26:48;;;;;;;;;26.50;19.25;;;;;;;;5043064;28;61749;-75
2022/12/15 15:29:31;;;;;;;;;17.75;17.25;;;;;;;;5041847;28;61864;-75
2022/12/15 15:32:06;;;;;;;;;30.25;23.00;;;;;;;;5042480;28;61979;-75
2022/12/15 15:34:31;;;;;;;;;30.25;24.25;;;;;;;;5059862;28;62115;-74
2022/12/15 15:36:57;;;;;;;;;35.25;22.25;;;;;;;;5062450;28;61818;-75
2022/12/15 15:39:22;;;;;;;;;33.50;21.00;;;;;;;;5061686;28;62639;-75
2022/12/15 15:41:47;;;;;;;;;23.50;20.50;;;;;;;;5060784;28;61884;-75
2022/12/15 15:44:14;;;;;;;;;24.25;17.75;;;;;;;;5062533;28;61760;-75
2022/12/15 15:46:57;;;;;;;;;21.50;15.50;;;;;;;;5061707;28;62131;-74
2022/12/15 15:49:23;;;;;;;;;18.50;15.75;;;;;;;;5053048;28;61747;-75
2022/12/15 15:51:48;;;;;;;;;24.50;19.00;;;;;;;;5054666;28;61828;-75
2022/12/15 15:54:15;;;;;;;;;26.25;20.25;;;;;;;;5062169;28;61929;-73
2022/12/15 15:56:40;;;;;;;;;32.25;20.25;;;;;;;;5062405;28;61682;-73
2022/12/15 15:59:13;;;;;;;;;24.00;18.50;;;;;;;;5094382;27;64769;-72
2022/12/15 16:01:41;;;;;;;;;22.25;20.50;;;;;;;;5052562;28;62141;-74
2022/12/15 16:04:06;;;;;;;;;22.00;19.50;;;;;;;;5051265;28;61864;-76
2022/12/15 16:06:32;;;;;;;;;24.75;21.00;;;;;;;;5052292;28;61647;-76
2022/12/15 16:08:58;;;;;;;;;34.00;26.50;;;;;;;;5049312;28;61924;-76
2022/12/15 16:11:25;;;;;;;;;33.00;24.25;;;;;;;;5049009;28;62114;-76
2022/12/15 16:13:50;;;;;;;;;29.25;25.00;;;;;;;;5049850;28;61814;-75
2022/12/15 16:16:20;;;;;;;;;38.75;23.75;;;;;;;;5032243;28;62074;-76
2022/12/15 16:18:46;;;;;;;;;31.00;25.75;;;;;;;;5048358;28;63389;-76
2022/12/15 16:21:12;;;;;;;;;26.50;20.75;;;;;;;;5048075;28;61954;-75
2022/12/15 16:23:39;;;;;;;;;29.00;19.00;;;;;;;;5048068;28;62097;-78
2022/12/15 16:26:07;;;;;;;;;27.50;18.75;;;;;;;;5040824;28;61841;-77
2022/12/15 16:28:33;;;;;;;;;21.75;21.00;;;;;;;;5044642;28;63652;-78
2022/12/15 16:30:58;;;;;;;;;28.25;24.50;;;;;;;;5041352;28;61834;-76
2022/12/15 16:33:23;;;;;;;;;32.25;20.00;;;;;;;;5039678;28;61819;-76
2022/12/15 16:35:49;;;;;;;;;26.00;20.50;;;;;;;;5040139;28;62215;-74
2022/12/15 16:38:18;;;;;;;;;27.75;18.25;;;;;;;;5060356;28;62569;-75
2022/12/15 16:40:43;;;;;;;;;33.50;25.50;;;;;;;;5061234;28;61754;-76
2022/12/15 16:43:19;;;;;;;;;30.75;24.00;;;;;;;;5057489;28;61656;-75
2022/12/15 16:45:46;;;;;;;;;34.50;21.25;;;;;;;;5040297;28;61807;-76
2022/12/15 16:48:12;;;;;;;;;23.25;15.75;;;;;;;;5040843;28;62167;-75